METAR Data
IDs: Format: Raw Decoded Include TAF

Data at: 0907 UTC 26 Jan 2020

KOEO 260855Z AUTO 25007KT 10SM OVC011 M03/M04 A2997 RMK AO2 T10301043 PWINO
KOEO 260835Z AUTO 25006KT 10SM OVC011 M03/M04 A2997 RMK AO2 T10291043 PWINO
KOEO 260815Z AUTO 29004KT 10SM OVC011 M03/M04 A2997 RMK AO2 T10281042 PWINO
KOEO 260755Z AUTO 27005KT 10SM OVC011 M03/M04 A2997 RMK AO2 T10281043 PWINO
KOEO 260735Z AUTO 29003KT 10SM OVC011 M03/M04 A2997 RMK AO2 T10291044 PWINO
KOEO 260715Z AUTO 29004KT 10SM OVC013 M03/M04 A2997 RMK AO2 T10291045 PWINO
KOEO 260655Z AUTO 28005KT 10SM OVC013 M03/M04 A2997 RMK AO2 T10291045 PWINO
KOEO 260635Z AUTO 28006KT 10SM OVC013 M03/M05 A2998 RMK AO2 T10301046 PWINO
KOEO 260615Z AUTO 29004KT 10SM OVC013 M03/M05 A2998 RMK AO2 T10301046 PWINO
KOEO 260555Z AUTO 28008KT 10SM OVC015 M03/M05 A2998 RMK AO2 T10311048 11020 21035 400051035 PWINO
KOEO 260535Z AUTO 26007KT 10SM OVC015 M03/M05 A2998 RMK AO2 T10321048 PWINO
KOEO 260515Z AUTO 26006KT 10SM OVC015 M03/M05 A2998 RMK AO2 T10311047 PWINO
KOEO 260455Z AUTO 27005KT 10SM OVC015 M03/M04 A2997 RMK AO2 T10301045 PWINO
KOEO 260435Z AUTO 25005KT 10SM OVC015 M03/M04 A2997 RMK AO2 T10261040 PWINO
KOEO 260415Z AUTO 28003KT 10SM OVC013 M02/M04 A2997 RMK AO2 T10231040 PWINO
KOEO 260355Z AUTO 31003KT 10SM OVC013 M02/M04 A2997 RMK AO2 T10221041 PWINO
KOEO 260335Z AUTO 31006KT 10SM OVC013 M02/M04 A2996 RMK AO2 T10211040 PWINO
KOEO 260315Z AUTO 32005KT 10SM OVC013 M02/M04 A2996 RMK AO2 T10221037 PWINO
KOEO 260255Z AUTO 31004KT 10SM OVC013 M02/M03 A2997 RMK AO2 T10201035 PWINO
KOEO 260235Z AUTO 28005KT 10SM OVC013 M02/M04 A2997 RMK AO2 T10221036 PWINO
KOEO 260215Z AUTO 30003KT 10SM OVC015 M02/M03 A2996 RMK AO2 T10231035 PWINO
KOEO 260155Z AUTO 00000KT 10SM OVC015 M02/M04 A2996 RMK AO2 T10251037 PWINO
KOEO 260135Z AUTO 30003KT 10SM OVC015 M03/M04 A2996 RMK AO2 T10301038 PWINO
KOEO 260115Z AUTO 30003KT 10SM BKN015 M03/M04 A2996 RMK AO2 T10311040 PWINO
KOEO 260055Z AUTO 29005KT 10SM CLR M03/M04 A2996 RMK AO2 T10331041 PWINO
KOEO 260035Z AUTO 28004KT 10SM CLR M02/M04 A2996 RMK AO2 T10251039 PWINO
KOEO 260015Z AUTO 28004KT 10SM CLR M03/M04 A2996 RMK AO2 T10271041 PWINO
KOEO 252355Z AUTO 29003KT 10SM CLR M02/M04 A2996 RMK AO2 T10211038 10005 21021 PWINO
KOEO 252335Z AUTO 28005KT 10SM CLR M02/M04 A2996 RMK AO2 T10171038 PWINO
KOEO 252315Z AUTO 29005KT 10SM SCT018 M01/M03 A2996 RMK AO2 T10111035 PWINO
KOEO 252255Z AUTO 29005KT 10SM BKN018 M01/M03 A2995 RMK AO2 T10071034 PWINO
KOEO 252235Z AUTO 29005KT 10SM BKN018 BKN050 00/M03 A2995 RMK AO2 T10031030 PWINO
KOEO 252215Z AUTO 32003KT 10SM SCT018 BKN050 00/M03 A2995 RMK AO2 T00001030 PWINO
KOEO 252155Z AUTO 31005KT 10SM SCT018 OVC050 00/M03 A2995 RMK AO2 T00001030 PWINO
KOEO 252135Z AUTO 32006KT 10SM SCT018 SCT023 OVC048 00/M03 A2995 RMK AO2 T00031026 PWINO
KOEO 252115Z AUTO 30006KT 10SM SCT018 OVC046 01/M02 A2995 RMK AO2 T00051025 PWINO
KOEO 252055Z AUTO 31007KT 10SM SCT019 OVC046 00/M03 A2995 RMK AO2 T00021026 PWINO
KOEO 252035Z AUTO 31005KT 10SM SCT011 BKN046 OVC050 00/M03 A2995 RMK AO2 T00001027 PWINO
KOEO 252015Z AUTO 30006KT 10SM BKN011 BKN035 OVC050 00/M02 A2995 RMK AO2 T00001022 PWINO
KOEO 251955Z AUTO 32005KT 3SM OVC011 00/M02 A2995 RMK AO2 T10051019 PWINO
KOEO 251935Z AUTO 32006KT 2 1/2SM BKN013 OVC033 00/M02 A2996 RMK AO2 T10051021 PWINO
KOEO 251915Z AUTO 33006KT 5SM BKN013 OVC036 00/M02 A2996 RMK AO2 T10021024 PWINO
KOEO 251855Z AUTO 32007KT 10SM OVC013 00/M03 A2997 RMK AO2 T10021026 PWINO
KOEO 251835Z AUTO 29006KT 10SM BKN011 OVC027 00/M02 A2997 RMK AO2 T10031025 PWINO
KOEO 251815Z AUTO 30007KT 10SM BKN011 BKN021 OVC027 00/M03 A2997 RMK AO2 T10051026 PWINO
KOEO 251755Z AUTO 30006KT 10SM OVC011 00/M03 A2997 RMK AO2 T10051026 11005 21023 PWINO
KOEO 251735Z AUTO 29008KT 10SM OVC011 M01/M03 A2998 RMK AO2 T10071027 PWINO
KOEO 251715Z AUTO 30007KT 10SM OVC011 M01/M03 A2998 RMK AO2 T10091027 PWINO
KOEO 251655Z AUTO 30006KT 10SM OVC009 M01/M03 A2998 RMK AO2 T10121029 PWINO
KOEO 251635Z AUTO 32005KT 10SM OVC009 M01/M03 A2998 RMK AO2 T10141029 PWINO
KOEO 251615Z AUTO 31006KT 7SM OVC009 M01/M03 A2998 RMK AO2 T10151027 PWINO
KOEO 251555Z AUTO 31007KT 10SM OVC009 M02/M03 A2997 RMK AO2 T10171030 PWINO
KOEO 251535Z AUTO 32006KT 10SM OVC009 M02/M03 A2997 RMK AO2 T10191030 PWINO
KOEO 251515Z AUTO 30006KT 10SM OVC009 M02/M03 A2997 RMK AO2 T10181030 PWINO
KOEO 251455Z AUTO 31005KT 10SM OVC011 M02/M03 A2997 RMK AO2 T10201031 PWINO
KOEO 251435Z AUTO 30007KT 10SM OVC011 M02/M03 A2997 RMK AO2 T10211032 PWINO
KOEO 251415Z AUTO 30005KT 10SM BKN011 OVC029 M02/M03 A2997 RMK AO2 T10211031 PWINO
KOEO 251355Z AUTO 33003KT 10SM SCT011 OVC029 M02/M03 A2996 RMK AO2 T10221031 PWINO
KOEO 251335Z AUTO 33005KT 10SM OVC027 M02/M03 A2996 RMK AO2 T10231030 PWINO
KOEO 251315Z AUTO 33007KT 10SM BKN011 OVC027 M02/M03 A2996 RMK AO2 T10221030 PWINO
KOEO 251255Z AUTO 32007KT 10SM OVC011 M02/M03 A2996 RMK AO2 T10211028 PWINO
KOEO 251235Z AUTO 31007KT 10SM OVC009 M02/M03 A2996 RMK AO2 T10201026 PWINO
KOEO 251215Z AUTO 31007KT 10SM OVC009 M02/M02 A2996 RMK AO2 T10201025 PWINO
KOEO 251155Z AUTO 31008KT 10SM OVC009 M02/M02 A2996 RMK AO2 70003 T10201023 11011 21020 PWINO
KOEO 251135Z AUTO 30007KT 10SM OVC009 M02/M02 A2995 RMK AO2 T10201023 PWINO
KOEO 251115Z AUTO 32006KT 7SM OVC009 M02/M02 A2995 RMK AO2 T10201021 PWINO
KOEO 251055Z AUTO 33007KT 4SM OVC009 M02/M02 A2995 RMK AO2 T10201022 PWINO
KOEO 251035Z AUTO 32006KT 10SM OVC009 M02/M02 A2995 RMK AO2 T10201023 PWINO
KOEO 251015Z AUTO 33006KT 10SM OVC009 M02/M02 A2995 RMK AO2 T10201025 PWINO
KOEO 250955Z AUTO 32007KT 10SM OVC009 M02/M02 A2995 RMK AO2 T10201025 PWINO
KOEO 250935Z AUTO 33006KT 10SM OVC009 M02/M02 A2995 RMK AO2 T10201024 PWINO
KOEO 250915Z AUTO 33005KT 10SM OVC009 M02/M02 A2995 RMK AO2 T10191023 PWINO
KOEO 250855Z AUTO 32006KT 7SM OVC009 M02/M02 A2996 RMK AO2 T10201022 PWINO
KOEO 250835Z AUTO 33004KT 7SM OVC009 M02/M02 A2996 RMK AO2 T10181021 PWINO
KOEO 250815Z AUTO 32005KT 10SM OVC009 M02/M02 A2996 RMK AO2 T10161020 PWINO
KOEO 250755Z AUTO 32007KT 10SM OVC009 M02/M02 A2996 RMK AO2 T10161020 PWINO
KOEO 250735Z AUTO 32004KT 10SM OVC009 M01/M02 A2996 RMK AO2 T10151020 PWINO
KOEO 250715Z AUTO 33007KT 10SM OVC009 M01/M02 A2996 RMK AO2 T10151020 PWINO
KOEO 250655Z AUTO 31005KT 10SM OVC011 M01/M02 A2996 RMK AO2 T10151020 PWINO
KOEO 250635Z AUTO 32005KT 7SM OVC011 M01/M02 A2996 RMK AO2 T10131020 PWINO
KOEO 250615Z AUTO 33007KT 10SM OVC011 M01/M02 A2997 RMK AO2 T10121018 PWINO
KOEO 250555Z AUTO 31006KT 10SM OVC009 M01/M01 A2997 RMK AO2 T10111015 10002 21011 400101018 PWINO
KOEO 250535Z AUTO 34005KT 10SM OVC009 M01/M01 A2998 RMK AO2 T10101014 PWINO
KOEO 250515Z AUTO 33006KT 10SM OVC009 M01/M01 A2998 RMK AO2 T10101012 PWINO
KOEO 250455Z AUTO 34008KT 10SM OVC009 M01/M01 A2998 RMK AO2 T10081010 PWINO
KOEO 250435Z AUTO 34009KT 10SM OVC009 M01/M01 A2998 RMK AO2 T10071010 PWINO
KOEO 250415Z AUTO 33005KT 10SM OVC009 00/M01 A2998 RMK AO2 T10051008 PWINO
KOEO 250355Z AUTO 33007KT 10SM OVC007 00/M01 A2999 RMK AO2 T10051006 PWINO
KOEO 250335Z AUTO 33005KT 10SM OVC007 00/00 A2998 RMK AO2 T10031003 PWINO
KOEO 250315Z AUTO 33008KT 10SM OVC007 00/00 A2999 RMK AO2 T10021002 PWINO
KOEO 250255Z AUTO 34005KT 10SM OVC009 00/00 A2998 RMK AO2 T00000000 PWINO
KOEO 250235Z AUTO 33005KT 10SM OVC009 00/00 A2999 RMK AO2 T00000000 PWINO
KOEO 250215Z AUTO 34006KT 10SM OVC009 00/00 A2998 RMK AO2 T00000000 PWINO
KOEO 250155Z AUTO 34007KT 7SM OVC009 00/00 A2998 RMK AO2 T00010001 PWINO
KOEO 250135Z AUTO 35005KT 10SM OVC009 00/00 A2999 RMK AO2 T00010001 PWINO
KOEO 250115Z AUTO 34005KT 7SM OVC009 00/00 A2999 RMK AO2 T00000000 PWINO
KOEO 250055Z AUTO 34005KT 5SM OVC009 00/00 A3000 RMK AO2 T00000000 PWINO
KOEO 250035Z AUTO 33007KT 7SM OVC009 00/00 A2999 RMK AO2 T00000000 PWINO
KOEO 250015Z AUTO 34004KT 7SM OVC009 00/00 A3000 RMK AO2 T00000000 PWINO
KOEO 242355Z AUTO 33005KT 7SM OVC011 00/00 A3001 RMK AO2 60003 T00000000 10010 20000 PWINO
KOEO 242335Z AUTO 33004KT 10SM OVC011 00/00 A3001 RMK AO2 T00000000 PWINO
KOEO 242315Z AUTO 34005KT 7SM SCT009 OVC014 00/00 A3000 RMK AO2 T00000000 PWINO
KOEO 242255Z AUTO 33006KT 7SM SCT009 BKN014 OVC022 00/00 A3000 RMK AO2 T00000000 PWINO
KOEO 242235Z AUTO 33006KT 4SM BKN009 BKN016 OVC024 00/00 A3000 RMK AO2 T00020002 PWINO
KOEO 242215Z AUTO 34005KT 4SM SCT009 BKN024 OVC034 00/00 A3000 RMK AO2 T00040004 PWINO
KOEO 242155Z AUTO 34006KT 5SM SCT011 BKN014 OVC034 01/00 A3000 RMK AO2 T00060001 PWINO
KOEO 242135Z AUTO 35008KT 10SM OVC013 01/00 A2999 RMK AO2 T00070000 PWINO
KOEO 242115Z AUTO 35005KT 10SM OVC013 01/00 A2999 RMK AO2 T00090000 PWINO